sensor_id;sensor_type;location;lat;lon;timestamp;P1;durP1;ratioP1;P2;durP2;ratioP2
21868;SDS011;11099;41.564;23.296;2024-03-06T00:28:54;20.05;;;12.50;;
21868;SDS011;11099;41.564;23.296;2024-03-06T00:31:23;18.65;;;11.88;;
21868;SDS011;11099;41.564;23.296;2024-03-06T00:33:51;17.30;;;11.45;;
21868;SDS011;11099;41.564;23.296;2024-03-06T00:36:42;19.48;;;13.23;;
21868;SDS011;11099;41.564;23.296;2024-03-06T00:42:01;16.02;;;11.65;;
21868;SDS011;11099;41.564;23.296;2024-03-06T01:17:43;17.58;;;12.55;;
21868;SDS011;11099;41.564;23.296;2024-03-06T01:20:16;17.52;;;12.27;;
21868;SDS011;11099;41.564;23.296;2024-03-06T01:22:49;18.45;;;13.23;;
21868;SDS011;11099;41.564;23.296;2024-03-06T01:25:18;22.00;;;13.43;;
21868;SDS011;11099;41.564;23.296;2024-03-06T01:27:51;23.80;;;13.35;;
21868;SDS011;11099;41.564;23.296;2024-03-06T01:30:28;18.98;;;12.65;;
21868;SDS011;11099;41.564;23.296;2024-03-06T02:02:43;18.80;;;11.57;;
21868;SDS011;11099;41.564;23.296;2024-03-06T02:44:08;15.93;;;10.15;;
21868;SDS011;11099;41.564;23.296;2024-03-06T02:46:36;16.90;;;11.90;;
21868;SDS011;11099;41.564;23.296;2024-03-06T02:49:51;17.58;;;10.25;;
21868;SDS011;11099;41.564;23.296;2024-03-06T02:59:20;13.60;;;9.43;;
21868;SDS011;11099;41.564;23.296;2024-03-06T03:02:20;12.80;;;9.32;;
21868;SDS011;11099;41.564;23.296;2024-03-06T03:04:55;13.77;;;8.82;;
21868;SDS011;11099;41.564;23.296;2024-03-06T03:07:49;13.02;;;9.38;;
21868;SDS011;11099;41.564;23.296;2024-03-06T08:07:15;21.10;;;14.93;;
21868;SDS011;11099;41.564;23.296;2024-03-06T08:20:42;14.48;;;11.18;;
21868;SDS011;11099;41.564;23.296;2024-03-06T08:23:10;18.45;;;13.48;;
21868;SDS011;11099;41.564;23.296;2024-03-06T08:39:16;32.13;;;21.52;;
21868;SDS011;11099;41.564;23.296;2024-03-06T08:55:15;38.45;;;29.67;;
21868;SDS011;11099;41.564;23.296;2024-03-06T08:58:00;34.20;;;27.67;;
21868;SDS011;11099;41.564;23.296;2024-03-06T09:11:01;27.20;;;20.10;;
21868;SDS011;11099;41.564;23.296;2024-03-06T09:26:17;19.73;;;15.18;;
21868;SDS011;11099;41.564;23.296;2024-03-06T09:29:45;16.73;;;13.88;;
21868;SDS011;11099;41.564;23.296;2024-03-06T09:32:40;15.32;;;12.45;;
21868;SDS011;11099;41.564;23.296;2024-03-06T09:41:36;18.02;;;13.95;;
21868;SDS011;11099;41.564;23.296;2024-03-06T12:06:04;9.32;;;8.25;;
21868;SDS011;11099;41.564;23.296;2024-03-06T12:33:45;13.30;;;9.25;;
21868;SDS011;11099;41.564;23.296;2024-03-06T12:36:24;12.10;;;9.85;;
21868;SDS011;11099;41.564;23.296;2024-03-06T12:38:58;10.85;;;9.27;;
21868;SDS011;11099;41.564;23.296;2024-03-06T12:41:26;16.23;;;10.95;;
21868;SDS011;11099;41.564;23.296;2024-03-06T12:43:53;10.75;;;9.32;;
21868;SDS011;11099;41.564;23.296;2024-03-06T12:46:25;11.38;;;9.30;;
21868;SDS011;11099;41.564;23.296;2024-03-06T12:48:51;12.90;;;9.13;;
21868;SDS011;11099;41.564;23.296;2024-03-06T12:51:28;13.50;;;10.70;;
21868;SDS011;11099;41.564;23.296;2024-03-06T12:54:03;14.07;;;10.68;;
21868;SDS011;11099;41.564;23.296;2024-03-06T12:56:31;12.25;;;9.05;;
21868;SDS011;11099;41.564;23.296;2024-03-06T12:59:02;17.25;;;13.10;;
21868;SDS011;11099;41.564;23.296;2024-03-06T13:01:30;16.67;;;11.75;;
21868;SDS011;11099;41.564;23.296;2024-03-06T13:03:58;14.30;;;10.02;;
21868;SDS011;11099;41.564;23.296;2024-03-06T13:06:28;14.55;;;10.65;;
21868;SDS011;11099;41.564;23.296;2024-03-06T13:08:59;14.55;;;10.90;;
21868;SDS011;11099;41.564;23.296;2024-03-06T13:11:28;19.80;;;15.10;;
21868;SDS011;11099;41.564;23.296;2024-03-06T13:13:56;11.77;;;9.18;;
21868;SDS011;11099;41.564;23.296;2024-03-06T13:16:23;17.92;;;12.13;;
21868;SDS011;11099;41.564;23.296;2024-03-06T13:18:49;19.63;;;15.15;;
21868;SDS011;11099;41.564;23.296;2024-03-06T13:21:19;11.60;;;8.00;;
21868;SDS011;11099;41.564;23.296;2024-03-06T13:23:49;16.20;;;11.80;;
21868;SDS011;11099;41.564;23.296;2024-03-06T13:26:20;11.38;;;8.95;;
21868;SDS011;11099;41.564;23.296;2024-03-06T13:28:47;17.60;;;12.48;;
21868;SDS011;11099;41.564;23.296;2024-03-06T13:31:14;28.05;;;21.45;;
21868;SDS011;11099;41.564;23.296;2024-03-06T13:33:44;21.33;;;16.83;;
21868;SDS011;11099;41.564;23.296;2024-03-06T13:39:34;18.80;;;13.45;;
21868;SDS011;11099;41.564;23.296;2024-03-06T13:48:22;13.68;;;11.20;;
21868;SDS011;11099;41.564;23.296;2024-03-06T13:50:47;11.35;;;9.90;;
21868;SDS011;11099;41.564;23.296;2024-03-06T14:02:01;13.05;;;10.32;;
21868;SDS011;11099;41.564;23.296;2024-03-06T14:08:18;14.82;;;10.07;;
21868;SDS011;11099;41.564;23.296;2024-03-06T14:14:22;11.68;;;8.70;;
21868;SDS011;11099;41.564;23.296;2024-03-06T14:20:03;9.40;;;8.38;;
21868;SDS011;11099;41.564;23.296;2024-03-06T14:52:03;16.63;;;11.50;;
21868;SDS011;11099;41.564;23.296;2024-03-06T15:01:45;18.63;;;12.20;;
21868;SDS011;11099;41.564;23.296;2024-03-06T15:31:44;11.60;;;8.70;;
21868;SDS011;11099;41.564;23.296;2024-03-06T15:34:10;11.77;;;9.75;;
21868;SDS011;11099;41.564;23.296;2024-03-06T15:36:38;18.23;;;13.10;;
21868;SDS011;11099;41.564;23.296;2024-03-06T15:39:03;44.80;;;27.02;;
21868;SDS011;11099;41.564;23.296;2024-03-06T15:41:33;21.42;;;15.27;;
21868;SDS011;11099;41.564;23.296;2024-03-06T15:43:59;34.00;;;19.70;;
21868;SDS011;11099;41.564;23.296;2024-03-06T15:46:26;26.35;;;18.45;;
21868;SDS011;11099;41.564;23.296;2024-03-06T15:48:52;26.65;;;16.42;;
21868;SDS011;11099;41.564;23.296;2024-03-06T15:51:17;28.27;;;17.63;;
21868;SDS011;11099;41.564;23.296;2024-03-06T15:53:45;45.58;;;25.80;;
21868;SDS011;11099;41.564;23.296;2024-03-06T15:56:11;38.17;;;25.33;;
21868;SDS011;11099;41.564;23.296;2024-03-06T18:18:49;9.98;;;8.73;;
21868;SDS011;11099;41.564;23.296;2024-03-06T18:22:15;14.60;;;8.52;;
21868;SDS011;11099;41.564;23.296;2024-03-06T18:27:42;13.65;;;9.45;;
21868;SDS011;11099;41.564;23.296;2024-03-06T21:27:38;25.65;;;12.95;;
21868;SDS011;11099;41.564;23.296;2024-03-06T21:30:07;17.83;;;13.27;;
21868;SDS011;11099;41.564;23.296;2024-03-06T21:32:45;17.60;;;11.13;;
21868;SDS011;11099;41.564;23.296;2024-03-06T21:35:14;22.67;;;13.43;;
21868;SDS011;11099;41.564;23.296;2024-03-06T21:37:50;24.05;;;15.77;;
21868;SDS011;11099;41.564;23.296;2024-03-06T21:42:53;15.80;;;8.77;;
21868;SDS011;11099;41.564;23.296;2024-03-06T21:45:20;15.00;;;9.73;;
21868;SDS011;11099;41.564;23.296;2024-03-06T21:47:53;18.70;;;10.82;;
21868;SDS011;11099;41.564;23.296;2024-03-06T21:50:25;18.17;;;12.63;;
21868;SDS011;11099;41.564;23.296;2024-03-06T21:52:51;15.35;;;10.93;;
21868;SDS011;11099;41.564;23.296;2024-03-06T21:55:22;20.33;;;13.35;;
21868;SDS011;11099;41.564;23.296;2024-03-06T21:57:51;17.63;;;12.05;;
21868;SDS011;11099;41.564;23.296;2024-03-06T22:00:19;18.73;;;12.73;;
21868;SDS011;11099;41.564;23.296;2024-03-06T22:02:45;18.67;;;12.80;;
21868;SDS011;11099;41.564;23.296;2024-03-06T22:05:12;16.50;;;10.93;;
21868;SDS011;11099;41.564;23.296;2024-03-06T22:07:40;19.17;;;11.52;;
21868;SDS011;11099;41.564;23.296;2024-03-06T22:10:06;18.13;;;12.38;;
21868;SDS011;11099;41.564;23.296;2024-03-06T22:12:34;17.23;;;11.93;;
21868;SDS011;11099;41.564;23.296;2024-03-06T23:52:28;18.85;;;9.93;;
21868;SDS011;11099;41.564;23.296;2024-03-06T23:54:55;16.10;;;10.50;;
21868;SDS011;11099;41.564;23.296;2024-03-06T23:57:22;14.02;;;10.93;;
21868;SDS011;11099;41.564;23.296;2024-03-06T23:59:51;15.95;;;12.20;;
